Time;durP1;ratioP1;P1;durP2;ratioP2;P2;SDS_P1;SDS_P2;PMS_P1;PMS_P2;Temp;Humidity;BMP_temperature;BMP_pressure;BME280_temperature;BME280_humidity;BME280_pressure;Samples;Min_cycle;Max_cycle;Signal;HPM_P1;HPM_P2
2023/05/14 00:02:22;;;;;;;9.67;5.70;;;17.50;99.90;;;17.62;57.62;101448.25;4982104;28;98617;-49
2023/05/14 00:04:47;;;;;;;15.20;8.37;;;17.30;99.90;;;17.55;56.29;101440.56;4982172;27;112566;-51
2023/05/14 00:07:13;;;;;;;4.17;2.67;;;17.30;99.90;;;17.48;58.88;101436.50;4979174;28;102819;-51
2023/05/14 00:09:39;;;;;;;5.90;3.90;;;17.10;99.90;;;17.41;58.69;101432.44;4978332;28;101617;-52
2023/05/14 00:12:05;;;;;;;6.60;4.37;;;17.00;99.90;;;17.39;58.15;101437.00;4974038;28;97560;-48
2023/05/14 00:14:31;;;;;;;10.13;4.33;;;17.00;99.90;;;17.38;59.17;101435.25;4984505;28;99523;-51
2023/05/14 00:16:58;;;;;;;6.57;4.90;;;17.00;99.90;;;17.39;58.53;101430.78;4972655;28;98385;-48
2023/05/14 00:19:24;;;;;;;2.87;2.43;;;17.10;99.90;;;17.42;59.28;101431.50;4980795;28;97649;-50
2023/05/14 00:21:50;;;;;;;6.87;4.27;;;17.20;99.90;;;17.44;58.44;101429.59;4981309;28;97133;-47
2023/05/14 00:24:16;;;;;;;5.00;2.63;;;17.20;99.90;;;17.47;59.13;101433.91;4987627;28;98705;-51
2023/05/14 00:26:42;;;;;;;4.70;2.27;;;17.20;99.90;;;17.50;58.89;101431.97;4983038;27;97915;-51
2023/05/14 00:29:08;;;;;;;3.97;2.70;;;17.30;99.90;;;17.58;59.12;101426.22;4985872;27;97919;-49
2023/05/14 00:31:34;;;;;;;4.07;2.53;;;17.40;99.90;;;17.63;58.73;101423.28;4980994;27;97333;-50
2023/05/14 00:34:00;;;;;;;2.57;2.27;;;17.50;99.90;;;17.63;58.56;101429.50;4976074;27;97243;-49
2023/05/14 00:36:26;;;;;;;6.77;2.70;;;17.50;99.90;;;17.60;58.76;101428.78;4984334;28;97428;-51
2023/05/14 00:38:51;;;;;;;2.33;2.00;;;17.40;99.90;;;17.61;58.68;101433.19;4980716;27;96776;-46
2023/05/14 00:41:17;;;;;;;3.57;2.20;;;17.40;99.90;;;17.60;58.71;101418.13;4982847;27;97106;-52
2023/05/14 00:43:43;;;;;;;2.67;2.43;;;17.40;99.90;;;17.60;58.91;101423.47;4979340;28;97361;-52
2023/05/14 00:46:11;;;;;;;3.60;2.73;;;17.40;99.90;;;17.60;58.92;101421.66;4989472;27;107032;-47
2023/05/14 00:48:37;;;;;;;5.70;3.50;;;17.40;99.90;;;17.61;58.22;101425.19;4981163;27;97276;-47
2023/05/14 00:51:02;;;;;;;2.57;2.20;;;17.40;99.90;;;17.62;58.62;101426.91;4975199;28;103731;-48
2023/05/14 00:53:28;;;;;;;2.40;1.97;;;17.40;99.90;;;17.59;58.82;101417.25;4985717;27;96902;-49
2023/05/14 00:55:54;;;;;;;3.17;2.13;;;17.40;99.90;;;17.60;58.71;101418.13;4975327;27;102367;-51
2023/05/14 00:58:21;;;;;;;4.17;2.30;;;17.40;99.90;;;17.62;58.68;101402.91;4986017;27;97378;-50
2023/05/14 01:00:47;;;;;;;2.40;2.20;;;17.40;99.90;;;17.64;58.67;101401.00;4971484;27;97392;-50
2023/05/14 01:03:13;;;;;;;3.37;3.07;;;17.50;99.90;;;17.63;58.46;101409.94;4985287;27;98755;-52
2023/05/14 01:06:27;;;;;;;4.77;3.30;;;17.40;99.90;;;17.62;58.43;101405.56;4989537;27;105875;-49
2023/05/14 01:09:31;;;;;;;5.57;3.77;;;17.40;99.90;;;17.50;58.58;101413.28;4983155;28;97294;-50
2023/05/14 01:12:34;;;;;;;5.23;3.93;;;17.20;99.90;;;17.42;58.93;101399.47;4984523;27;97038;-51
2023/05/14 01:15:15;;;;;;;5.23;2.37;;;17.00;99.90;;;17.32;59.36;101405.38;4984390;27;98216;-46
2023/05/14 01:17:52;;;;;;;3.67;3.10;;;16.80;99.90;;;17.26;59.58;101403.91;4977445;28;96763;-48
2023/05/14 01:20:19;;;;;;;5.10;2.83;;;16.80;99.90;;;17.19;59.80;101400.66;4988465;28;97413;-44
2023/05/14 01:22:45;;;;;;;3.87;2.10;;;16.70;99.90;;;17.16;60.28;101397.31;4980808;27;97310;-44
2023/05/14 01:25:10;;;;;;;2.10;1.90;;;16.70;99.90;;;17.19;59.96;101397.13;4985967;27;97126;-47
2023/05/14 01:27:51;;;;;;;4.63;2.63;;;16.80;99.90;;;17.21;59.75;101389.91;4982867;27;115594;-43
2023/05/14 01:30:36;;;;;;;5.60;3.20;;;16.90;99.90;;;17.17;59.73;101391.88;4976587;28;97221;-47
2023/05/14 01:33:07;;;;;;;4.83;2.70;;;16.80;99.90;;;17.19;60.17;101386.47;4980155;28;97215;-44
2023/05/14 01:35:33;;;;;;;2.40;2.20;;;16.80;99.90;;;17.28;60.08;101401.16;4980654;28;97463;-44
2023/05/14 01:38:03;;;;;;;3.20;2.80;;;17.00;99.90;;;17.37;59.51;101390.88;4976289;28;97172;-44
2023/05/14 01:40:32;;;;;;;3.40;2.40;;;17.20;99.90;;;17.41;59.24;101389.75;4984770;27;97274;-46
2023/05/14 01:42:59;;;;;;;2.67;2.20;;;17.20;99.90;;;17.41;58.92;101387.09;4980742;27;97438;-45
2023/05/14 01:45:25;;;;;;;4.03;2.40;;;17.20;99.90;;;17.38;59.22;101387.25;4976702;28;97363;-45
2023/05/14 01:47:52;;;;;;;4.40;3.23;;;17.10;99.90;;;17.36;58.73;101378.50;4975874;28;97066;-48
2023/05/14 01:50:18;;;;;;;3.17;2.60;;;17.00;99.90;;;17.35;59.16;101375.88;4982719;28;97201;-47
2023/05/14 01:52:44;;;;;;;2.70;2.50;;;17.00;99.90;;;17.32;58.99;101376.03;4976839;28;99175;-46
2023/05/14 01:55:10;;;;;;;3.63;2.50;;;17.00;99.90;;;17.29;59.68;101382.41;4981293;28;98305;-46
2023/05/14 01:57:35;;;;;;;3.53;2.23;;;16.90;99.90;;;17.31;59.65;101380.50;4983122;27;98140;-44
2023/05/14 02:00:03;;;;;;;3.80;2.40;;;17.00;99.90;;;17.36;59.62;101382.94;4985088;27;97206;-45
2023/05/14 02:02:28;;;;;;;2.97;2.13;;;17.10;99.90;;;17.39;59.46;101378.31;4987439;27;97084;-47
2023/05/14 02:04:54;;;;;;;3.43;2.20;;;17.20;99.90;;;17.45;59.28;101377.97;4975641;28;107589;-48
2023/05/14 02:07:20;;;;;;;3.43;2.33;;;17.30;99.90;;;17.48;58.95;101366.28;4988650;27;97049;-43
2023/05/14 02:09:46;;;;;;;2.73;2.03;;;17.30;99.90;;;17.57;58.71;101372.94;4977871;27;104555;-45
2023/05/14 02:12:11;;;;;;;3.30;2.43;;;17.40;99.90;;;17.63;58.42;101376.13;4984671;28;97343;-45
2023/05/14 02:14:37;;;;;;;2.47;2.07;;;17.60;99.90;;;17.66;58.50;101376.00;4979469;28;112447;-44
2023/05/14 02:17:03;;;;;;;2.20;2.00;;;17.60;99.90;;;17.69;58.36;101369.66;4981669;28;98297;-46
2023/05/14 02:19:29;;;;;;;2.27;1.97;;;17.60;99.90;;;17.68;58.19;101373.25;4987987;27;97285;-47
2023/05/14 02:21:55;;;;;;;2.63;2.23;;;17.60;99.90;;;17.73;58.26;101376.53;4979016;28;97594;-44
2023/05/14 02:24:21;;;;;;;2.80;2.17;;;17.70;99.90;;;17.77;58.14;101362.94;4983043;27;97567;-44
2023/05/14 02:26:47;;;;;;;3.80;2.43;;;17.70;99.90;;;17.79;57.33;101362.84;4975563;27;105632;-45
2023/05/14 02:29:13;;;;;;;3.07;2.33;;;17.70;99.90;;;17.74;57.89;101362.25;4982993;27;97154;-45
2023/05/14 02:31:39;;;;;;;2.37;1.93;;;17.60;99.90;;;17.74;58.07;101362.25;4981515;28;104333;-46
2023/05/14 02:34:05;;;;;;;3.17;2.47;;;17.60;99.90;;;17.69;57.74;101353.66;4978740;28;114642;-44
2023/05/14 02:36:31;;;;;;;2.57;1.97;;;17.50;99.90;;;17.66;58.22;101353.78;4983985;28;97785;-43
2023/05/14 02:38:59;;;;;;;4.27;2.20;;;17.40;99.90;;;17.63;58.40;101349.44;4986407;27;97098;-44
2023/05/14 02:41:24;;;;;;;2.07;1.90;;;17.50;99.90;;;17.70;58.30;101360.72;4982109;28;97297;-45
2023/05/14 02:43:52;;;;;;;3.23;2.57;;;17.60;99.90;;;17.74;57.79;101354.25;4979971;27;108503;-44
2023/05/14 02:46:17;;;;;;;3.57;2.07;;;17.70;99.90;;;17.71;57.88;101357.09;4986898;28;97644;-46
2023/05/14 02:48:43;;;;;;;2.27;2.07;;;17.60;99.90;;;17.70;57.96;101366.03;4992482;28;102566;-44
2023/05/14 02:51:09;;;;;;;2.50;1.87;;;17.60;99.90;;;17.66;57.88;101367.13;4984743;28;101036;-47
2023/05/14 02:53:35;;;;;;;3.70;2.47;;;17.50;99.90;;;17.55;57.13;101362.38;4985060;27;98812;-47
2023/05/14 02:56:01;;;;;;;2.63;2.03;;;17.20;99.90;;;17.39;57.97;101364.97;4982722;28;97708;-46
2023/05/14 02:58:27;;;;;;;3.63;2.23;;;16.90;99.90;;;17.28;59.20;101370.00;4986991;27;97221;-45
2023/05/14 03:00:52;;;;;;;2.80;2.03;;;16.80;99.90;;;17.25;59.22;101376.38;4984476;27;97113;-44
2023/05/14 03:03:18;;;;;;;3.90;2.60;;;16.80;99.90;;;17.19;59.03;101370.47;4985870;27;103397;-48
2023/05/14 03:05:44;;;;;;;2.30;2.10;;;16.70;99.90;;;17.13;59.73;101370.81;4983655;28;97160;-44
2023/05/14 03:08:10;;;;;;;2.83;2.10;;;16.70;99.90;;;17.14;59.95;101372.53;4984094;27;101927;-47
2023/05/14 03:10:36;;;;;;;2.97;2.50;;;16.80;99.90;;;17.06;57.75;101372.06;4982307;28;96884;-45
2023/05/14 03:13:02;;;;;;;6.80;2.27;;;16.60;99.90;;;16.95;59.94;101368.16;4984370;27;97527;-45
2023/05/14 03:15:28;;;;;;;2.50;1.87;;;16.50;99.90;;;16.92;60.44;101368.31;4982388;28;107007;-43
2023/05/14 03:17:54;;;;;;;3.10;2.20;;;16.50;99.90;;;16.91;60.40;101374.56;4978020;27;97373;-47
2023/05/14 03:20:20;;;;;;;2.17;1.77;;;16.50;99.90;;;16.92;60.47;101367.41;4980132;28;97510;-44
2023/05/14 03:22:46;;;;;;;3.03;2.00;;;16.50;99.90;;;16.93;60.38;101364.72;4984674;27;97950;-46
2023/05/14 03:25:11;;;;;;;2.30;2.10;;;16.50;99.90;;;16.97;60.31;101369.88;4979887;27;101107;-45
2023/05/14 03:27:37;;;;;;;3.37;1.97;;;16.60;99.90;;;16.97;60.17;101369.88;4977886;28;97113;-44
2023/05/14 03:30:04;;;;;;;4.10;2.77;;;16.60;99.90;;;16.92;57.68;101364.75;4984286;27;97135;-44
2023/05/14 03:32:30;;;;;;;2.60;2.10;;;16.50;99.90;;;16.88;60.51;101372.06;4984115;28;97227;-44
2023/05/14 03:34:56;;;;;;;2.70;2.00;;;16.40;99.90;;;16.90;60.35;101370.16;4975221;28;100096;-46
2023/05/14 03:37:23;;;;;;;2.37;1.97;;;16.50;99.90;;;16.88;60.43;101366.72;4986860;27;112947;-43
2023/05/14 03:39:49;;;;;;;2.47;2.00;;;16.40;99.90;;;16.90;60.73;101370.16;4983799;27;97548;-46
2023/05/14 03:42:15;;;;;;;2.77;1.80;;;16.50;99.90;;;16.90;60.50;101370.16;4984712;28;97554;-45
2023/05/14 03:44:40;;;;;;;1.97;1.60;;;16.50;99.90;;;16.94;60.58;101371.75;4988370;27;97465;-46
2023/05/14 03:47:06;;;;;;;2.13;1.93;;;16.60;99.90;;;16.99;60.13;101368.00;4982252;27;97141;-43
2023/05/14 03:49:32;;;;;;;2.40;1.90;;;16.70;99.90;;;17.04;60.13;101366.81;4989171;27;99570;-46
2023/05/14 03:51:58;;;;;;;2.67;2.07;;;16.80;99.90;;;16.99;60.33;101368.84;4980047;27;98023;-43
2023/05/14 03:54:25;;;;;;;3.27;2.60;;;16.60;99.90;;;16.96;58.93;101366.34;4989860;27;97904;-43
2023/05/14 03:56:51;;;;;;;3.33;2.23;;;16.60;99.90;;;16.85;58.77;101361.56;4980412;27;97173;-45
2023/05/14 03:59:17;;;;;;;3.37;2.60;;;16.30;99.90;;;16.75;60.58;101354.97;4980484;27;97368;-43
2023/05/14 04:01:43;;;;;;;2.57;1.87;;;16.20;99.90;;;16.72;61.00;101360.44;4984606;27;112593;-45
2023/05/14 04:04:09;;;;;;;3.10;1.90;;;16.10;99.90;;;16.77;60.93;101352.22;4976893;27;98525;-45
2023/05/14 04:06:35;;;;;;;2.67;1.97;;;16.30;99.90;;;16.83;60.83;101357.25;4988609;28;96789;-43
2023/05/14 04:09:02;;;;;;;2.37;1.90;;;16.50;99.90;;;16.88;60.82;101361.41;4978176;28;97152;-48
2023/05/14 04:11:28;;;;;;;2.07;1.80;;;16.60;99.90;;;16.90;60.11;101367.50;4984380;28;97354;-43
2023/05/14 04:13:54;;;;;;;2.37;1.60;;;16.60;99.90;;;16.92;60.27;101368.31;4985761;28;97107;-47
2023/05/14 04:16:20;;;;;;;3.17;2.10;;;16.60;99.90;;;16.93;60.41;101364.72;4985574;28;97317;-46
2023/05/14 04:18:46;;;;;;;2.57;2.20;;;16.60;99.90;;;17.01;60.20;101366.09;4987162;28;97153;-44
2023/05/14 04:21:11;;;;;;;2.23;1.83;;;16.80;99.90;;;17.07;60.08;101360.44;4981455;27;102544;-44
2023/05/14 04:23:37;;;;;;;2.33;1.93;;;16.90;99.90;;;17.14;59.71;101359.22;4985346;28;98559;-45
2023/05/14 04:26:04;;;;;;;2.30;2.10;;;17.00;99.90;;;17.19;59.54;101359.81;4977405;27;97672;-45
2023/05/14 04:28:30;;;;;;;2.70;2.03;;;17.00;99.90;;;17.16;59.45;101360.84;4985488;27;97515;-46
2023/05/14 04:30:55;;;;;;;5.43;3.00;;;16.90;99.90;;;17.10;59.45;101355.84;4979661;28;97419;-49
2023/05/14 04:33:21;;;;;;;4.40;2.27;;;16.80;99.90;;;17.09;59.90;101361.25;4987510;28;104267;-47
2023/05/14 04:35:47;;;;;;;2.10;1.73;;;16.70;99.90;;;17.10;59.91;101361.16;4984743;27;112528;-44
2023/05/14 04:38:13;;;;;;;2.17;1.97;;;16.80;99.90;;;17.12;59.61;101364.63;4988955;27;97339;-44
2023/05/14 04:40:40;;;;;;;2.73;1.80;;;16.80;99.90;;;17.13;59.46;101361.00;4980944;28;97766;-44
2023/05/14 04:43:06;;;;;;;2.53;1.87;;;16.90;99.90;;;17.14;59.48;101367.19;4972568;28;97856;-45
2023/05/14 04:45:32;;;;;;;2.23;1.97;;;16.80;99.90;;;17.17;59.35;101367.03;4980557;27;96982;-45
2023/05/14 04:47:58;;;;;;;1.80;1.70;;;16.90;99.90;;;17.15;59.65;101369.78;4978011;28;97179;-45
2023/05/14 04:50:24;;;;;;;2.87;2.37;;;16.80;99.90;;;17.16;59.53;101360.84;4976923;28;97628;-45
2023/05/14 04:52:50;;;;;;;2.20;1.90;;;16.90;99.90;;;17.22;59.50;101360.53;4988510;27;97526;-48
2023/05/14 04:55:16;;;;;;;2.17;1.97;;;17.00;99.90;;;17.24;59.07;101363.13;4983915;27;97245;-49
2023/05/14 04:57:42;;;;;;;2.77;1.73;;;17.00;99.90;;;17.21;59.01;101355.25;4988528;28;97174;-47
2023/05/14 05:00:09;;;;;;;2.57;2.20;;;17.00;99.90;;;17.18;59.32;101355.44;4981781;27;97764;-48
2023/05/14 05:02:35;;;;;;;2.27;2.07;;;16.90;99.90;;;17.17;59.55;101348.38;4980659;28;97252;-43
2023/05/14 05:05:02;;;;;;;2.37;1.60;;;16.80;99.90;;;16.88;59.83;101350.72;4976437;28;97137;-43
2023/05/14 05:07:28;;;;;;;2.63;2.10;;;16.50;99.90;;;16.95;60.32;101352.16;4987779;28;97073;-45
2023/05/14 05:09:54;;;;;;;2.40;1.80;;;16.60;99.90;;;17.01;59.86;101355.44;4984289;27;98169;-47
2023/05/14 05:12:20;;;;;;;2.10;1.90;;;16.70;99.90;;;17.05;59.98;101357.00;4986998;28;97379;-44
2023/05/14 05:14:46;;;;;;;2.57;2.13;;;16.80;99.90;;;17.05;59.87;101357.00;4987979;28;97802;-48
2023/05/14 05:17:12;;;;;;;2.43;2.07;;;16.70;99.90;;;17.07;59.59;101352.44;4985814;27;97639;-44
2023/05/14 05:19:38;;;;;;;2.30;1.80;;;16.80;99.90;;;17.08;59.54;101351.53;4980230;28;97940;-44
2023/05/14 05:22:03;;;;;;;2.97;1.90;;;16.80;99.90;;;17.13;59.67;101360.16;4986431;27;97032;-45
2023/05/14 05:24:29;;;;;;;2.40;1.80;;;16.90;99.90;;;17.19;59.45;101350.00;4984518;28;108596;-45
2023/05/14 05:26:55;;;;;;;2.00;1.90;;;17.00;99.90;;;17.29;59.17;101352.22;4982716;28;96897;-44
2023/05/14 05:29:22;;;;;;;2.40;1.57;;;17.10;99.90;;;17.36;58.66;101351.81;4986227;28;107679;-46
2023/05/14 05:31:48;;;;;;;4.00;2.27;;;17.20;99.90;;;17.43;58.42;101347.88;4979609;27;97334;-50
2023/05/14 05:34:14;;;;;;;1.87;1.50;;;17.30;99.90;;;17.50;58.37;101349.28;4982003;28;97121;-44
2023/05/14 05:36:40;;;;;;;2.33;1.87;;;17.50;99.90;;;17.60;57.88;101351.44;4985974;28;97210;-46
2023/05/14 05:39:06;;;;;;;2.03;1.90;;;17.60;99.90;;;17.61;58.10;101361.16;4976991;28;97129;-44
2023/05/14 05:41:32;;;;;;;1.77;1.60;;;17.60;99.90;;;17.69;57.76;101358.97;4979878;28;97810;-44
2023/05/14 05:43:57;;;;;;;1.97;1.77;;;17.70;99.90;;;17.75;57.47;101363.97;4983108;27;100518;-43
2023/05/14 05:46:23;;;;;;;3.07;1.97;;;17.80;99.90;;;17.81;57.34;101363.66;4983709;28;99490;-44
2023/05/14 05:48:49;;;;;;;2.07;1.60;;;17.90;99.90;;;17.88;57.06;101365.03;4983957;27;97099;-44
2023/05/14 05:51:15;;;;;;;2.17;1.77;;;17.90;99.90;;;17.92;57.05;101361.25;4983617;28;97289;-44
2023/05/14 05:53:40;;;;;;;2.77;2.20;;;18.00;99.90;;;17.98;56.63;101366.25;4984751;28;97284;-46
2023/05/14 05:56:06;;;;;;;2.10;1.77;;;18.10;99.90;;;18.02;56.55;101366.94;4981254;28;96846;-45
2023/05/14 05:58:32;;;;;;;2.77;1.87;;;18.10;99.90;;;17.98;56.54;101371.59;4981167;27;103620;-46
2023/05/14 06:00:58;;;;;;;4.07;3.13;;;18.00;99.90;;;17.94;55.17;101370.06;4982965;27;100997;-43
2023/05/14 06:03:24;;;;;;;2.10;1.90;;;17.90;99.90;;;17.90;56.98;101368.47;4990106;27;96969;-46
2023/05/14 06:05:51;;;;;;;1.73;1.63;;;17.80;99.90;;;17.82;56.88;101376.06;4985936;27;97707;-48
2023/05/14 06:08:17;;;;;;;2.70;1.73;;;17.70;99.90;;;17.80;57.09;101375.28;4985184;27;97627;-44
2023/05/14 06:10:44;;;;;;;3.67;2.77;;;17.60;99.90;;;17.74;56.78;101368.44;4989946;28;97062;-45
2023/05/14 06:13:10;;;;;;;4.00;3.10;;;17.60;99.90;;;17.63;56.67;101375.28;4982019;28;97246;-44
2023/05/14 06:15:36;;;;;;;5.70;3.97;;;17.40;99.90;;;17.53;57.28;101375.78;4991677;27;97118;-44
2023/05/14 06:18:02;;;;;;;2.03;1.83;;;17.30;99.90;;;17.55;58.02;101373.88;4983762;27;97304;-45
2023/05/14 06:20:28;;;;;;;4.33;3.50;;;17.30;99.90;;;17.48;56.18;101376.94;4987862;27;97241;-46
2023/05/14 06:22:53;;;;;;;4.27;3.40;;;17.30;99.90;;;17.25;56.53;101370.19;4983475;28;98744;-45
2023/05/14 06:25:19;;;;;;;4.43;3.57;;;17.00;99.90;;;17.15;56.90;101372.44;4980463;28;97077;-46
2023/05/14 06:27:45;;;;;;;4.00;3.40;;;16.80;99.90;;;17.06;57.81;101366.72;4983876;28;99231;-46
2023/05/14 06:30:12;;;;;;;5.00;3.53;;;16.70;99.90;;;16.93;59.40;101364.72;4980070;28;120635;-46
2023/05/14 06:32:37;;;;;;;3.57;3.03;;;16.50;99.90;;;16.88;60.06;101366.72;4988050;28;97203;-46
2023/05/14 06:35:04;;;;;;;6.60;3.87;;;16.60;99.90;;;16.77;58.32;101365.53;4986140;27;96934;-47
2023/05/14 06:37:30;;;;;;;5.43;3.90;;;16.50;99.90;;;16.64;58.58;101370.59;4990648;27;97254;-43
2023/05/14 06:39:55;;;;;;;4.33;3.90;;;16.30;99.90;;;16.60;59.66;101369.00;4982148;27;97524;-44
2023/05/14 06:42:22;;;;;;;2.23;1.67;;;16.30;99.90;;;16.71;60.88;101368.53;4980133;28;101634;-47
2023/05/14 06:44:47;;;;;;;2.70;2.30;;;16.50;99.90;;;16.82;60.45;101367.03;4988591;27;99301;-43
2023/05/14 06:47:13;;;;;;;3.73;3.30;;;16.60;99.90;;;16.93;59.88;101372.69;4977215;27;108085;-46
2023/05/14 06:49:39;;;;;;;3.50;2.37;;;16.80;99.90;;;17.03;59.83;101373.06;4985498;28;97544;-45
2023/05/14 06:52:05;;;;;;;7.53;5.40;;;16.90;99.90;;;16.99;59.26;101368.84;4981323;27;97419;-45
2023/05/14 06:54:31;;;;;;;7.93;5.37;;;16.90;99.90;;;16.94;59.27;101365.56;4991749;28;97064;-47
2023/05/14 06:56:57;;;;;;;9.47;5.70;;;16.80;99.90;;;16.89;59.50;101367.59;4983639;28;97473;-45
2023/05/14 06:59:23;;;;;;;4.07;3.07;;;16.70;99.90;;;16.95;60.16;101365.50;4993967;27;97516;-47
2023/05/14 07:01:49;;;;;;;3.10;2.17;;;16.70;99.90;;;17.03;60.05;101369.56;4990049;27;97159;-52
2023/05/14 07:04:15;;;;;;;8.27;5.27;;;16.80;99.90;;;17.11;59.72;101367.38;4989027;28;97166;-44
2023/05/14 07:06:40;;;;;;;5.90;4.00;;;16.90;99.90;;;17.23;59.11;101361.41;4986717;28;112174;-45
2023/05/14 07:09:06;;;;;;;9.50;4.07;;;17.10;99.90;;;17.19;59.05;101370.47;4989485;28;102268;-44
2023/05/14 07:11:32;;;;;;;6.43;3.80;;;17.10;99.90;;;17.30;58.79;101361.94;4987826;27;97299;-46
2023/05/14 07:13:59;;;;;;;5.93;4.40;;;17.20;99.90;;;17.20;57.82;101364.19;4983066;27;97402;-44
2023/05/14 07:16:25;;;;;;;2.60;2.10;;;17.10;99.90;;;17.25;59.24;101363.03;4993840;27;97323;-44
2023/05/14 07:18:51;;;;;;;4.60;2.17;;;17.10;99.90;;;17.37;58.87;101361.53;4990839;28;97320;-44
2023/05/14 07:21:17;;;;;;;5.20;4.00;;;17.20;99.90;;;17.37;58.27;101358.88;4982699;28;97452;-49
2023/05/14 07:23:43;;;;;;;3.93;3.07;;;17.30;99.90;;;17.41;58.64;101360.44;4992884;27;97270;-44
2023/05/14 07:26:08;;;;;;;7.70;4.23;;;17.30;99.90;;;17.47;57.57;101354.75;4986269;28;103054;-45
2023/05/14 07:28:34;;;;;;;5.33;4.27;;;17.40;99.90;;;17.43;59.17;101353.19;4983854;28;97102;-52
2023/05/14 07:31:00;;;;;;;5.07;3.73;;;17.40;99.90;;;17.40;57.08;101344.50;4979371;28;97164;-53
2023/05/14 07:33:26;;;;;;;5.10;4.10;;;17.30;99.90;;;17.40;58.01;101348.03;4988388;27;97193;-49
2023/05/14 07:35:53;;;;;;;5.93;4.30;;;17.30;99.90;;;17.42;58.13;101346.16;4987976;28;97245;-49
2023/05/14 07:38:19;;;;;;;7.00;5.40;;;17.30;99.90;;;17.38;58.31;101336.59;4978194;28;97149;-48
2023/05/14 07:40:45;;;;;;;6.60;4.83;;;17.30;99.90;;;17.46;57.95;101337.03;4988120;28;97456;-56
2023/05/14 07:43:11;;;;;;;6.73;4.57;;;17.40;99.90;;;17.45;58.03;101339.78;4982807;27;97287;-46
2023/05/14 07:45:40;;;;;;;7.20;5.07;;;17.30;99.90;;;17.43;56.09;101341.66;4981833;27;103848;-50
2023/05/14 07:48:06;;;;;;;8.63;4.80;;;17.30;99.90;;;17.42;57.04;101335.47;4985706;27;97609;-50
2023/05/14 07:50:31;;;;;;;7.00;5.20;;;17.30;99.90;;;17.45;56.89;101324.63;4988509;28;97253;-46
2023/05/14 07:52:57;;;;;;;8.13;5.67;;;17.40;99.90;;;17.46;56.72;101323.69;4982097;27;96815;-52
2023/05/14 07:55:23;;;;;;;10.93;6.30;;;17.40;99.90;;;17.51;57.21;101335.00;4978649;28;108328;-49
2023/05/14 07:57:49;;;;;;;8.87;6.37;;;17.50;99.90;;;17.57;57.02;101330.25;4981632;27;100204;-56
2023/05/14 08:00:15;;;;;;;10.97;6.97;;;17.60;99.90;;;17.61;55.65;101334.47;4982773;28;97225;-50
2023/05/14 08:02:42;;;;;;;10.87;6.80;;;17.60;99.90;;;17.62;55.56;101328.19;4983493;28;97014;-48
2023/05/14 08:05:09;;;;;;;10.17;6.43;;;17.60;99.90;;;17.68;57.18;101341.22;4979315;27;104904;-52
2023/05/14 08:07:35;;;;;;;7.40;5.57;;;17.70;99.90;;;17.67;56.60;101344.84;4979119;28;97453;-51
2023/05/14 08:10:01;;;;;;;9.97;5.50;;;17.60;99.90;;;17.64;55.22;101334.31;4965371;28;97494;-50
2023/05/14 08:12:28;;;;;;;8.70;5.70;;;17.60;99.90;;;17.64;54.88;101340.50;4968072;27;97282;-55
2023/05/14 08:14:55;;;;;;;7.97;4.87;;;17.60;99.90;;;17.66;55.66;101343.97;4964782;28;97439;-56
2023/05/14 08:17:21;;;;;;;10.73;5.87;;;17.60;99.90;;;17.73;55.32;101340.03;4967308;28;97571;-52
2023/05/14 08:19:46;;;;;;;5.53;4.30;;;17.70;99.90;;;17.79;55.42;101344.19;4968273;28;97488;-53
2023/05/14 08:22:12;;;;;;;7.10;5.13;;;17.80;99.90;;;17.83;54.50;101343.09;4967539;28;99237;-50
2023/05/14 08:24:38;;;;;;;7.63;6.10;;;17.90;99.90;;;17.86;53.12;101334.91;4969363;28;97438;-54
2023/05/14 08:27:05;;;;;;;8.20;5.17;;;17.90;99.90;;;17.88;54.95;101346.34;4963995;27;97530;-56
2023/05/14 08:29:31;;;;;;;8.83;4.63;;;17.90;99.90;;;17.91;54.81;101335.50;4967710;28;97542;-51
2023/05/14 08:31:57;;;;;;;2.67;2.27;;;17.90;99.90;;;17.98;56.20;101331.56;4964966;28;97370;-53
2023/05/14 08:34:22;;;;;;;6.57;4.80;;;18.00;99.90;;;18.02;54.50;101325.09;4969853;28;98583;-46
2023/05/14 08:36:48;;;;;;;6.10;4.67;;;18.10;99.90;;;18.10;55.02;101333.53;4967968;28;98878;-55
2023/05/14 08:39:14;;;;;;;7.43;4.83;;;18.10;99.90;;;18.15;55.11;101330.59;4963475;28;105719;-49
2023/05/14 08:41:40;;;;;;;5.47;3.63;;;18.20;99.90;;;18.20;55.74;101327.66;4967118;28;97408;-51
2023/05/14 08:44:17;;;;;;;6.40;5.07;;;18.30;99.90;;;18.26;54.37;101327.34;4967372;27;97593;-55
2023/05/14 08:46:43;;;;;;;7.97;5.47;;;18.40;99.90;;;18.29;53.36;101321.81;4968584;28;97813;-50
2023/05/14 08:49:37;;;;;;;6.83;5.10;;;18.40;99.90;;;18.36;53.73;101317.81;4963793;28;97678;-55
2023/05/14 08:52:03;;;;;;;6.83;4.67;;;18.50;99.90;;;18.40;52.70;101314.06;4965718;28;97072;-48
2023/05/14 08:54:31;;;;;;;5.53;3.80;;;18.50;99.90;;;18.43;53.84;101316.53;4966973;27;97381;-53
2023/05/14 08:56:58;;;;;;;6.07;4.53;;;18.50;99.90;;;18.41;53.86;101313.97;4966744;28;97750;-52
2023/05/14 08:59:24;;;;;;;5.50;4.40;;;18.60;99.90;;;18.48;52.56;101310.91;4965002;28;97240;-48
2023/05/14 09:01:52;;;;;;;5.43;3.70;;;18.60;99.90;;;18.49;52.73;101308.16;4963820;28;97514;-53
2023/05/14 09:04:24;;;;;;;5.53;3.67;;;18.60;99.90;;;18.54;52.08;101311.44;4967846;28;100307;-50
2023/05/14 09:06:54;;;;;;;4.63;3.60;;;18.60;99.90;;;18.57;51.60;101311.25;4967875;28;98430;-52
2023/05/14 09:09:21;;;;;;;5.40;3.73;;;18.60;99.90;;;18.59;51.56;101309.34;4964716;28;99233;-48
2023/05/14 09:11:49;;;;;;;5.77;3.80;;;18.60;99.90;;;18.59;51.43;101305.81;4969662;28;97783;-51
2023/05/14 09:14:16;;;;;;;5.73;4.50;;;18.70;99.90;;;18.62;50.98;101314.50;4966037;28;105309;-48
2023/05/14 09:16:45;;;;;;;3.00;2.70;;;18.70;99.90;;;18.65;53.63;101306.31;4967988;28;99074;-50
2023/05/14 09:19:12;;;;;;;7.43;3.63;;;18.80;99.90;;;18.66;53.06;101310.75;4965275;28;98868;-51
2023/05/14 09:21:39;;;;;;;5.10;3.20;;;18.80;99.90;;;18.72;52.49;101305.03;4965240;28;98628;-52
2023/05/14 09:24:05;;;;;;;5.17;3.90;;;18.90;99.90;;;18.77;53.07;101301.22;4966530;28;97993;-52
2023/05/14 09:26:33;;;;;;;6.57;4.40;;;18.90;99.90;;;18.79;52.72;101307.31;4967132;28;97178;-48
2023/05/14 09:29:01;;;;;;;6.40;4.33;;;18.90;99.90;;;18.81;53.29;101308.97;4962242;28;97431;-48
2023/05/14 09:31:31;;;;;;;5.53;4.00;;;18.90;99.90;;;18.85;52.33;101304.31;4967776;28;97342;-45
2023/05/14 09:33:58;;;;;;;4.73;3.60;;;19.00;99.90;;;18.89;52.78;101296.00;4963298;27;98424;-44
2023/05/14 09:36:26;;;;;;;4.13;3.60;;;19.00;99.90;;;18.93;52.40;101299.34;4966889;27;96913;-46
2023/05/14 09:38:59;;;;;;;5.10;3.97;;;19.10;99.90;;;18.99;53.43;101291.81;4962846;28;98250;-47
2023/05/14 09:41:24;;;;;;;5.07;3.70;;;19.10;99.90;;;19.02;51.86;101288.09;4963550;28;97367;-47
2023/05/14 09:43:50;;;;;;;5.00;3.83;;;19.20;99.90;;;19.04;52.28;101278.16;4964944;28;98816;-47
2023/05/14 09:46:17;;;;;;;5.00;3.30;;;19.20;99.90;;;19.04;50.30;101275.50;4971372;28;97937;-46
2023/05/14 09:48:44;;;;;;;5.10;3.70;;;19.20;99.90;;;19.05;51.08;101277.22;4968878;28;98502;-44
2023/05/14 09:51:10;;;;;;;5.27;3.43;;;19.20;99.90;;;19.11;50.86;101274.19;4964367;28;98985;-46
2023/05/14 09:53:36;;;;;;;4.13;3.33;;;19.30;99.90;;;19.15;49.88;101270.34;4967600;27;98198;-45
2023/05/14 09:56:02;;;;;;;4.00;3.00;;;19.30;99.90;;;19.18;50.69;101270.16;4964395;28;108743;-46
2023/05/14 09:58:28;;;;;;;4.53;3.03;;;19.40;99.90;;;19.15;49.55;101266.81;4963171;27;98274;-44
2023/05/14 10:00:56;;;;;;;7.97;3.77;;;19.30;99.90;;;19.19;48.17;101271.88;4965817;28;98374;-44
2023/05/14 10:03:28;;;;;;;4.07;3.33;;;19.40;99.90;;;19.25;50.03;101270.66;4968971;28;97868;-47
2023/05/14 10:06:00;;;;;;;5.37;3.40;;;19.40;99.90;;;19.23;51.18;101273.41;4965602;28;98259;-45
2023/05/14 10:08:40;;;;;;;4.57;3.40;;;19.50;99.90;;;19.29;50.12;101264.16;4967232;28;97281;-42
2023/05/14 10:11:14;;;;;;;5.80;4.27;;;19.50;99.90;;;19.28;50.05;101260.63;4964444;28;98105;-47